Time;durP1;ratioP1;P1;durP2;ratioP2;P2;SDS_P1;SDS_P2;PMS_P1;PMS_P2;Temp;Humidity;BMP_temperature;BMP_pressure;BME280_temperature;BME280_humidity;BME280_pressure;Samples;Min_cycle;Max_cycle;Signal;HPM_P1;HPM_P2
2023/09/14 00:00:13;;;;;;;4.67;2.50;;;15.40;99.90;;;;;;5037770;28;20471;-61
2023/09/14 00:02:39;;;;;;;2.87;2.03;;;15.30;99.90;;;;;;5041573;28;20316;-60
2023/09/14 00:05:05;;;;;;;4.97;2.13;;;15.30;99.90;;;;;;5038263;28;20210;-60
2023/09/14 00:07:32;;;;;;;2.77;2.30;;;15.20;99.90;;;;;;5044053;28;20267;-59
2023/09/14 00:09:58;;;;;;;3.20;2.27;;;15.30;99.90;;;;;;5040172;28;20206;-65
2023/09/14 00:12:23;;;;;;;9.50;2.47;;;15.30;99.90;;;;;;5035285;28;20318;-67
2023/09/14 00:14:49;;;;;;;6.47;2.27;;;15.20;99.90;;;;;;5038815;28;20225;-66
2023/09/14 00:17:15;;;;;;;5.10;2.60;;;15.20;99.90;;;;;;5037495;28;20744;-66
2023/09/14 00:19:40;;;;;;;3.93;2.60;;;15.30;99.90;;;;;;5021142;28;20591;-65
2023/09/14 00:22:05;;;;;;;4.80;2.70;;;15.10;99.90;;;;;;5038243;28;20831;-67
2023/09/14 00:24:31;;;;;;;4.13;2.23;;;15.20;99.90;;;;;;5041207;28;20203;-64
2023/09/14 00:26:57;;;;;;;6.07;2.63;;;15.10;99.90;;;;;;5036881;28;20214;-64
2023/09/14 00:29:22;;;;;;;2.80;2.23;;;15.10;99.90;;;;;;5036650;28;20218;-68
2023/09/14 00:31:47;;;;;;;4.63;2.77;;;15.10;99.90;;;;;;5038630;28;20226;-61
2023/09/14 00:34:13;;;;;;;4.23;2.70;;;15.00;99.90;;;;;;5038363;28;20712;-59
2023/09/14 00:36:38;;;;;;;6.97;3.23;;;14.90;99.90;;;;;;5037872;28;20191;-62
2023/09/14 00:39:06;;;;;;;3.50;2.80;;;14.90;99.90;;;;;;5022168;28;20202;-60
2023/09/14 00:41:31;;;;;;;4.27;2.63;;;14.90;99.90;;;;;;5017667;28;20631;-66
2023/09/14 00:43:57;;;;;;;4.73;3.33;;;14.90;99.90;;;;;;5039531;28;20202;-66
2023/09/14 00:46:23;;;;;;;3.90;2.57;;;14.90;99.90;;;;;;5035818;28;20218;-65
2023/09/14 00:48:48;;;;;;;4.47;2.60;;;14.80;99.90;;;;;;5038495;28;20735;-67
2023/09/14 00:51:14;;;;;;;6.53;2.93;;;14.70;99.90;;;;;;5037052;28;20214;-68
2023/09/14 00:53:40;;;;;;;5.00;2.70;;;14.70;99.90;;;;;;5039742;28;20223;-66
2023/09/14 00:56:06;;;;;;;5.73;3.40;;;14.70;99.90;;;;;;5045235;28;20214;-59
2023/09/14 00:58:32;;;;;;;2.80;2.53;;;14.70;99.90;;;;;;5038361;28;20210;-59
2023/09/14 01:00:58;;;;;;;5.90;2.47;;;14.70;99.90;;;;;;5033911;28;20211;-58
2023/09/14 01:03:24;;;;;;;3.17;2.70;;;14.70;99.90;;;;;;5041888;28;20731;-59
2023/09/14 01:05:50;;;;;;;4.83;2.47;;;14.60;99.90;;;;;;5038039;28;20252;-63
2023/09/14 01:08:16;;;;;;;6.03;2.53;;;14.60;99.90;;;;;;5039908;28;20229;-58
2023/09/14 01:10:41;;;;;;;8.33;2.97;;;14.60;99.90;;;;;;5016553;28;20207;-61
2023/09/14 01:13:17;;;;;;;7.33;3.37;;;14.60;99.90;;;;;;5019894;28;20203;-63
2023/09/14 01:15:52;;;;;;;3.00;2.70;;;14.60;99.90;;;;;;5038808;28;20197;-64
2023/09/14 01:18:42;;;;;;;6.23;2.80;;;14.50;99.90;;;;;;5015335;28;20281;-64
2023/09/14 01:21:48;;;;;;;4.57;3.17;;;14.50;99.90;;;;;;5033684;28;20264;-63
2023/09/14 01:24:25;;;;;;;3.57;2.50;;;14.40;99.90;;;;;;5040804;28;20198;-63
2023/09/14 01:26:51;;;;;;;7.03;3.63;;;14.30;99.90;;;;;;5041448;28;20205;-61
2023/09/14 01:29:16;;;;;;;5.00;3.20;;;14.20;99.90;;;;;;5014894;28;20223;-64
2023/09/14 01:31:42;;;;;;;7.57;2.90;;;14.20;99.90;;;;;;5039458;28;20209;-61
2023/09/14 01:34:08;;;;;;;6.57;2.70;;;14.20;99.90;;;;;;5036718;28;20202;-62
2023/09/14 01:36:53;;;;;;;3.43;2.83;;;14.20;99.90;;;;;;5018441;28;20207;-60
2023/09/14 01:39:20;;;;;;;4.30;2.97;;;14.10;99.90;;;;;;5034522;28;20203;-63
2023/09/14 01:41:46;;;;;;;3.43;2.73;;;14.10;99.90;;;;;;5034393;28;20267;-63
2023/09/14 01:44:13;;;;;;;3.37;2.60;;;14.10;99.90;;;;;;5029328;28;20268;-63
2023/09/14 01:46:39;;;;;;;4.03;2.47;;;14.00;99.90;;;;;;5038886;28;20218;-59
2023/09/14 01:49:04;;;;;;;5.30;2.40;;;14.00;99.90;;;;;;5036599;28;20767;-62
2023/09/14 01:51:30;;;;;;;3.33;2.43;;;14.10;99.90;;;;;;5030875;28;20291;-64
2023/09/14 01:53:55;;;;;;;5.70;2.97;;;14.10;99.90;;;;;;5018342;28;20252;-63
2023/09/14 01:56:23;;;;;;;4.33;2.90;;;14.00;99.90;;;;;;5031051;28;20199;-64
2023/09/14 01:58:49;;;;;;;5.47;3.30;;;14.00;99.90;;;;;;5038420;28;20198;-62
2023/09/14 02:01:14;;;;;;;6.27;3.43;;;13.90;99.90;;;;;;5037423;28;20218;-63
2023/09/14 02:03:40;;;;;;;7.90;3.23;;;13.80;99.90;;;;;;5041776;28;20190;-58
2023/09/14 02:06:05;;;;;;;5.73;3.07;;;13.70;99.90;;;;;;5032022;28;20211;-61
2023/09/14 02:08:31;;;;;;;6.03;2.93;;;13.60;99.90;;;;;;5038917;28;20689;-62
2023/09/14 02:10:56;;;;;;;3.43;3.13;;;13.50;99.90;;;;;;5036100;28;20203;-59
2023/09/14 02:13:22;;;;;;;3.93;3.00;;;13.50;99.90;;;;;;5018530;28;20203;-64
2023/09/14 02:15:47;;;;;;;4.67;3.47;;;13.50;99.90;;;;;;5016303;28;20199;-64
2023/09/14 02:18:13;;;;;;;5.10;3.00;;;13.50;99.90;;;;;;5036737;28;20351;-64
2023/09/14 02:20:38;;;;;;;3.53;3.03;;;13.60;99.90;;;;;;5031569;28;20616;-64
2023/09/14 02:23:04;;;;;;;3.43;3.13;;;13.60;99.90;;;;;;5017890;28;20198;-64
2023/09/14 02:25:30;;;;;;;6.73;3.63;;;13.60;99.90;;;;;;5035845;28;20285;-65
2023/09/14 02:27:55;;;;;;;4.00;3.13;;;13.70;99.90;;;;;;5015986;28;20297;-64
2023/09/14 02:30:21;;;;;;;10.07;3.07;;;13.70;99.90;;;;;;5016163;28;20190;-73
2023/09/14 02:32:47;;;;;;;7.10;3.17;;;13.70;99.90;;;;;;5039215;28;20202;-72
2023/09/14 02:35:12;;;;;;;4.90;3.23;;;13.60;99.90;;;;;;5033127;28;20810;-67
2023/09/14 02:37:37;;;;;;;3.50;2.77;;;13.60;99.90;;;;;;5018019;28;20591;-67
2023/09/14 02:40:06;;;;;;;4.63;3.20;;;13.60;99.90;;;;;;5036291;28;20211;-68
2023/09/14 02:42:32;;;;;;;4.87;3.30;;;13.60;99.90;;;;;;5033105;28;20191;-66
2023/09/14 02:44:57;;;;;;;5.00;3.10;;;13.50;99.90;;;;;;5033626;28;20288;-67
2023/09/14 02:47:23;;;;;;;4.53;3.10;;;13.40;99.90;;;;;;5039614;28;20242;-67
2023/09/14 02:49:48;;;;;;;5.30;3.37;;;13.40;99.90;;;;;;5037143;28;20633;-66
2023/09/14 02:52:14;;;;;;;6.07;2.90;;;13.40;99.90;;;;;;5031957;28;20276;-66
2023/09/14 02:54:39;;;;;;;8.07;3.17;;;13.40;99.90;;;;;;5039975;28;20200;-67
2023/09/14 02:57:05;;;;;;;3.33;2.77;;;13.40;99.90;;;;;;5037375;28;20637;-66
2023/09/14 02:59:31;;;;;;;3.80;3.07;;;13.40;99.90;;;;;;5016792;28;20681;-70
2023/09/14 03:01:56;;;;;;;7.57;3.67;;;13.40;99.90;;;;;;5038380;28;20206;-69
2023/09/14 03:04:22;;;;;;;8.93;3.37;;;13.40;99.90;;;;;;5035566;28;20206;-70
2023/09/14 03:06:48;;;;;;;3.60;2.77;;;13.30;99.90;;;;;;5019877;28;20239;-70
2023/09/14 03:09:13;;;;;;;5.13;3.60;;;13.30;99.90;;;;;;5032131;28;20288;-66
2023/09/14 03:11:39;;;;;;;3.60;3.30;;;13.10;99.90;;;;;;5035804;28;20194;-68
2023/09/14 03:14:04;;;;;;;4.53;3.60;;;13.10;99.90;;;;;;5035751;28;20305;-67
2023/09/14 03:16:30;;;;;;;5.30;3.27;;;13.10;99.90;;;;;;5032577;28;20245;-62
2023/09/14 03:18:55;;;;;;;4.10;3.40;;;13.10;99.90;;;;;;5038580;28;20743;-62
2023/09/14 03:21:26;;;;;;;5.50;3.17;;;13.20;99.90;;;;;;5038498;28;20297;-73
2023/09/14 03:23:52;;;;;;;5.17;3.20;;;13.10;99.90;;;;;;5032604;28;20195;-70
2023/09/14 03:26:18;;;;;;;3.60;3.20;;;13.00;99.90;;;;;;5019657;28;20240;-69
2023/09/14 03:28:46;;;;;;;4.20;3.17;;;13.00;99.90;;;;;;5035474;28;20226;-70
2023/09/14 03:31:11;;;;;;;8.03;3.57;;;12.90;99.90;;;;;;5032037;28;20285;-68
2023/09/14 03:33:37;;;;;;;6.07;3.10;;;12.90;99.90;;;;;;5041718;28;20856;-65
2023/09/14 03:36:03;;;;;;;6.17;3.70;;;12.80;99.90;;;;;;5039194;28;20200;-65
2023/09/14 03:38:29;;;;;;;5.90;3.90;;;12.70;99.90;;;;;;5017335;28;20194;-65
2023/09/14 03:40:54;;;;;;;3.50;3.20;;;12.70;99.90;;;;;;5024838;28;20616;-66
2023/09/14 03:43:20;;;;;;;6.00;4.47;;;12.70;99.90;;;;;;5035207;28;20201;-65
2023/09/14 03:45:46;;;;;;;7.40;3.80;;;12.80;99.90;;;;;;5031224;28;20550;-68
2023/09/14 03:48:12;;;;;;;6.13;3.40;;;12.80;99.90;;;;;;5033866;28;20668;-69
2023/09/14 03:50:37;;;;;;;6.23;3.53;;;12.80;99.90;;;;;;5039322;28;20221;-71
2023/09/14 03:53:03;;;;;;;4.67;3.67;;;12.90;99.90;;;;;;5033024;28;20230;-71
2023/09/14 03:55:30;;;;;;;3.90;3.60;;;12.90;99.90;;;;;;5026985;28;20264;-73
2023/09/14 03:57:55;;;;;;;8.87;4.20;;;12.90;99.90;;;;;;5042841;28;20202;-74
2023/09/14 04:00:21;;;;;;;3.97;3.03;;;13.00;99.90;;;;;;5044074;28;20667;-72
2023/09/14 04:02:47;;;;;;;8.63;3.67;;;13.10;99.90;;;;;;5039463;28;20198;-72
2023/09/14 04:05:14;;;;;;;5.70;3.40;;;13.10;99.90;;;;;;5016948;28;20225;-67
2023/09/14 04:07:40;;;;;;;4.90;3.47;;;13.10;99.90;;;;;;5034116;28;20198;-71
2023/09/14 04:10:09;;;;;;;9.47;3.17;;;13.10;99.90;;;;;;5035987;28;20202;-70
2023/09/14 04:12:36;;;;;;;5.23;3.20;;;13.20;99.90;;;;;;5036199;28;20690;-68
2023/09/14 04:15:02;;;;;;;4.43;3.47;;;13.20;99.90;;;;;;5035112;28;20941;-69
2023/09/14 04:17:28;;;;;;;8.53;3.17;;;13.20;99.90;;;;;;5036545;28;20752;-68
2023/09/14 04:19:53;;;;;;;5.93;3.20;;;13.20;99.90;;;;;;5038756;28;20199;-68
2023/09/14 04:22:19;;;;;;;3.33;2.90;;;13.30;99.90;;;;;;5038312;28;20209;-69
2023/09/14 04:24:44;;;;;;;3.97;3.00;;;13.20;99.90;;;;;;5035145;28;20199;-70
2023/09/14 04:27:10;;;;;;;4.97;3.43;;;13.30;99.90;;;;;;5040219;28;20213;-77
2023/09/14 04:29:35;;;;;;;4.00;3.20;;;13.20;99.90;;;;;;5038359;28;20276;-63
2023/09/14 04:32:01;;;;;;;4.57;3.33;;;13.10;99.90;;;;;;5022934;28;20206;-64
2023/09/14 04:34:27;;;;;;;5.43;3.40;;;13.10;99.90;;;;;;5020880;28;20198;-75
2023/09/14 04:36:52;;;;;;;3.47;2.60;;;13.10;99.90;;;;;;5016627;28;20214;-73
2023/09/14 04:39:18;;;;;;;7.00;4.17;;;13.10;99.90;;;;;;5014701;28;20759;-72
2023/09/14 04:41:43;;;;;;;4.97;3.17;;;13.00;99.90;;;;;;5037732;28;20324;-72
2023/09/14 04:44:09;;;;;;;3.73;3.27;;;12.90;99.90;;;;;;5031306;28;20594;-73
2023/09/14 04:46:35;;;;;;;4.70;3.87;;;12.90;99.90;;;;;;5030431;28;20207;-72
2023/09/14 04:49:00;;;;;;;5.47;4.03;;;12.90;99.90;;;;;;5039191;28;20343;-67
2023/09/14 04:51:26;;;;;;;4.13;3.50;;;12.80;99.90;;;;;;5034077;28;20379;-66
2023/09/14 04:53:52;;;;;;;4.80;3.47;;;12.70;99.90;;;;;;5021297;28;20209;-66
2023/09/14 04:56:19;;;;;;;11.17;4.60;;;12.60;99.90;;;;;;5036344;28;20199;-66
2023/09/14 04:58:44;;;;;;;4.43;3.50;;;12.60;99.90;;;;;;5037533;28;20202;-68
2023/09/14 05:01:10;;;;;;;4.73;3.67;;;12.50;99.90;;;;;;5037629;28;20199;-68
2023/09/14 05:03:35;;;;;;;9.13;6.73;;;12.50;99.90;;;;;;5042160;28;20203;-67
2023/09/14 05:06:02;;;;;;;5.50;3.13;;;12.60;99.90;;;;;;5039154;28;20289;-68
2023/09/14 05:08:28;;;;;;;5.43;3.73;;;12.70;99.90;;;;;;5035535;28;20276;-69
2023/09/14 05:10:53;;;;;;;5.37;4.17;;;12.70;99.90;;;;;;5042265;28;20198;-69
2023/09/14 05:13:20;;;;;;;7.53;3.90;;;12.80;99.90;;;;;;5041847;28;20234;-69
2023/09/14 05:15:46;;;;;;;5.13;3.33;;;12.80;99.90;;;;;;5037738;28;20201;-69
2023/09/14 05:18:12;;;;;;;10.30;4.17;;;12.80;99.90;;;;;;5020397;28;20369;-69
2023/09/14 05:20:44;;;;;;;4.90;3.20;;;12.80;99.90;;;;;;5037266;28;20236;-69
2023/09/14 05:23:10;;;;;;;5.90;3.70;;;12.60;99.90;;;;;;5035873;28;20498;-69
2023/09/14 05:25:36;;;;;;;5.03;3.60;;;12.70;99.90;;;;;;5037619;28;20723;-69
2023/09/14 05:28:01;;;;;;;4.77;3.30;;;12.90;99.90;;;;;;5039068;28;20222;-69
2023/09/14 05:30:27;;;;;;;6.83;4.10;;;12.90;99.90;;;;;;5031082;28;20210;-69
2023/09/14 05:32:52;;;;;;;4.90;3.53;;;12.80;99.90;;;;;;5036476;28;20198;-69
2023/09/14 05:35:18;;;;;;;6.17;3.93;;;12.80;99.90;;;;;;5037751;28;20693;-69
2023/09/14 05:37:44;;;;;;;10.87;3.37;;;12.90;99.90;;;;;;5033391;28;20224;-69
2023/09/14 05:40:11;;;;;;;7.10;4.20;;;12.90;99.90;;;;;;5032229;28;20206;-69
2023/09/14 05:42:37;;;;;;;7.47;4.17;;;12.90;99.90;;;;;;5034402;28;20767;-70
2023/09/14 05:45:06;;;;;;;7.50;4.43;;;13.00;99.90;;;;;;5036015;28;20202;-69
2023/09/14 05:47:32;;;;;;;5.97;3.97;;;13.00;99.90;;;;;;5036923;28;20612;-69
2023/09/14 05:49:58;;;;;;;8.57;4.07;;;13.00;99.90;;;;;;5042979;28;20322;-69
2023/09/14 05:52:23;;;;;;;4.37;3.20;;;13.00;99.90;;;;;;5035531;28;20796;-69
2023/09/14 05:54:49;;;;;;;5.13;3.60;;;12.90;99.90;;;;;;5035580;28;20645;-67
2023/09/14 05:57:15;;;;;;;8.97;4.33;;;12.80;99.90;;;;;;5037950;28;20214;-67
2023/09/14 05:59:40;;;;;;;6.10;4.83;;;12.90;99.90;;;;;;5039995;28;20284;-67
2023/09/14 06:02:07;;;;;;;5.13;3.77;;;13.00;99.90;;;;;;5036702;28;20233;-67
2023/09/14 06:04:33;;;;;;;4.80;4.30;;;13.20;99.90;;;;;;5036876;28;20201;-67
2023/09/14 06:06:58;;;;;;;8.63;4.20;;;13.20;99.90;;;;;;5033881;28;20195;-67
2023/09/14 06:09:26;;;;;;;6.13;4.03;;;13.20;99.90;;;;;;5036268;28;20302;-66
2023/09/14 06:11:52;;;;;;;10.87;5.23;;;13.10;99.90;;;;;;5037074;28;20195;-66
2023/09/14 06:14:18;;;;;;;6.00;4.40;;;13.10;99.90;;;;;;5036136;28;20199;-66
2023/09/14 06:16:43;;;;;;;5.30;4.03;;;13.10;99.90;;;;;;5037457;28;20235;-62
2023/09/14 06:19:09;;;;;;;5.97;3.40;;;13.10;99.90;;;;;;5036944;28;20218;-63
2023/09/14 06:21:35;;;;;;;8.53;4.63;;;13.10;99.90;;;;;;5039165;28;20211;-63
2023/09/14 06:24:01;;;;;;;6.13;3.50;;;13.10;99.90;;;;;;5037255;28;20285;-63
2023/09/14 06:26:30;;;;;;;5.30;4.13;;;13.20;99.90;;;;;;5014492;28;20744;-62
2023/09/14 06:28:56;;;;;;;7.97;4.80;;;13.30;99.90;;;;;;5035716;28;20217;-65
2023/09/14 06:31:25;;;;;;;4.33;3.90;;;13.30;99.90;;;;;;5038775;28;20194;-62
2023/09/14 06:33:51;;;;;;;4.87;3.60;;;13.40;99.90;;;;;;5036036;28;20213;-65
2023/09/14 06:36:18;;;;;;;12.70;4.13;;;13.40;99.90;;;;;;5015416;28;20921;-64
2023/09/14 06:38:47;;;;;;;7.30;4.60;;;13.50;99.90;;;;;;5035433;28;20604;-66
2023/09/14 06:41:14;;;;;;;8.20;3.90;;;13.60;99.90;;;;;;5036349;28;20198;-67
2023/09/14 06:43:42;;;;;;;9.13;3.80;;;13.70;99.90;;;;;;5028182;28;20191;-67
2023/09/14 06:46:09;;;;;;;4.53;3.70;;;13.60;99.90;;;;;;5028581;28;20204;-68
2023/09/14 06:48:35;;;;;;;7.63;3.87;;;13.60;99.90;;;;;;5029845;28;20237;-66
2023/09/14 06:51:00;;;;;;;4.73;3.30;;;13.70;99.90;;;;;;5036819;28;20202;-67
2023/09/14 06:53:26;;;;;;;7.83;3.73;;;13.90;99.90;;;;;;5017593;28;20195;-66
2023/09/14 06:55:52;;;;;;;4.90;3.50;;;14.00;99.90;;;;;;5032455;28;20534;-67
2023/09/14 06:58:17;;;;;;;5.30;3.37;;;14.00;99.90;;;;;;5032019;28;20205;-68
2023/09/14 07:00:43;;;;;;;8.87;3.97;;;14.10;99.90;;;;;;5038466;28;20792;-66
2023/09/14 07:03:08;;;;;;;6.60;3.60;;;14.20;99.90;;;;;;5031932;28;20199;-66
2023/09/14 07:05:35;;;;;;;4.77;3.60;;;14.20;99.90;;;;;;5038189;28;20210;-74
2023/09/14 07:08:01;;;;;;;3.43;2.57;;;14.30;99.90;;;;;;5038556;28;20210;-67
2023/09/14 07:10:26;;;;;;;9.83;4.00;;;14.50;99.90;;;;;;5034858;28;20916;-71
2023/09/14 07:12:52;;;;;;;11.47;4.00;;;14.80;99.90;;;;;;5034039;28;20187;-70
2023/09/14 07:15:17;;;;;;;6.27;3.80;;;14.90;99.90;;;;;;5018618;28;20198;-65
2023/09/14 07:17:43;;;;;;;8.20;3.90;;;14.90;99.90;;;;;;5032826;28;20615;-72
2023/09/14 07:20:09;;;;;;;6.20;3.80;;;14.90;99.90;;;;;;5023302;28;20207;-62
2023/09/14 07:22:36;;;;;;;4.70;3.60;;;15.00;99.90;;;;;;5035160;28;20210;-61
2023/09/14 07:25:02;;;;;;;4.30;3.07;;;14.90;99.90;;;;;;5044132;28;20191;-60
2023/09/14 07:27:27;;;;;;;4.73;3.63;;;14.90;99.90;;;;;;5035594;28;20203;-60
2023/09/14 07:29:53;;;;;;;4.77;3.53;;;15.10;99.90;;;;;;5035696;28;20322;-65
2023/09/14 07:32:19;;;;;;;6.90;3.27;;;15.20;99.90;;;;;;5031709;28;20282;-64
2023/09/14 07:34:44;;;;;;;4.60;2.57;;;15.20;99.90;;;;;;5037125;28;20350;-60
2023/09/14 07:37:10;;;;;;;5.87;3.50;;;15.40;99.90;;;;;;5035622;28;20242;-65
2023/09/14 07:39:35;;;;;;;2.80;2.60;;;15.60;99.90;;;;;;5035589;28;20199;-59
2023/09/14 07:42:01;;;;;;;3.23;2.53;;;15.60;99.90;;;;;;5035122;28;20663;-64
2023/09/14 07:44:26;;;;;;;3.50;2.00;;;15.50;99.90;;;;;;5032392;28;20199;-62
2023/09/14 07:46:52;;;;;;;3.63;2.47;;;15.50;99.90;;;;;;5028144;28;20205;-63
2023/09/14 07:49:17;;;;;;;2.97;2.23;;;15.40;99.90;;;;;;5028674;28;20276;-62
2023/09/14 07:51:43;;;;;;;4.07;2.00;;;15.60;99.90;;;;;;5032341;28;20202;-62
2023/09/14 07:54:08;;;;;;;7.00;2.60;;;15.70;99.90;;;;;;5034061;28;20198;-62
2023/09/14 07:56:34;;;;;;;3.50;2.97;;;15.70;99.90;;;;;;5039306;28;20198;-61
2023/09/14 07:58:59;;;;;;;4.23;2.40;;;15.70;99.90;;;;;;5034812;28;20663;-62
2023/09/14 08:01:25;;;;;;;4.73;1.93;;;15.70;99.90;;;;;;5035826;28;20199;-62
2023/09/14 08:03:50;;;;;;;3.37;2.20;;;15.70;99.90;;;;;;5019618;28;20288;-62
2023/09/14 08:06:18;;;;;;;4.47;2.07;;;15.80;99.90;;;;;;5036594;28;20203;-63
2023/09/14 08:08:44;;;;;;;2.90;2.27;;;15.80;99.90;;;;;;5035666;28;20588;-61
2023/09/14 08:11:11;;;;;;;2.23;2.03;;;15.80;99.90;;;;;;5037809;28;20603;-62
2023/09/14 08:13:36;;;;;;;3.53;2.13;;;15.80;99.90;;;;;;5037803;28;20203;-62
2023/09/14 08:16:05;;;;;;;5.27;2.03;;;15.80;99.90;;;;;;5038927;28;20250;-62
2023/09/14 08:18:31;;;;;;;4.43;1.90;;;15.90;99.90;;;;;;5040472;28;20187;-62
2023/09/14 08:20:56;;;;;;;6.33;2.20;;;16.00;99.90;;;;;;5043174;28;20233;-62
2023/09/14 08:23:22;;;;;;;1.93;1.73;;;16.00;99.90;;;;;;5035398;28;20265;-62
2023/09/14 08:25:48;;;;;;;2.93;2.17;;;16.00;99.90;;;;;;5042454;28;20575;-62
2023/09/14 08:28:17;;;;;;;2.00;1.53;;;16.00;99.90;;;;;;5034720;28;20275;-63
2023/09/14 08:30:44;;;;;;;8.40;3.90;;;16.10;99.90;;;;;;5039167;28;20225;-63
2023/09/14 08:33:13;;;;;;;2.30;1.57;;;16.10;99.90;;;;;;5040027;28;20218;-61
2023/09/14 08:35:39;;;;;;;1.53;1.37;;;16.20;99.90;;;;;;5039465;28;20411;-61
2023/09/14 08:38:06;;;;;;;3.63;2.13;;;16.30;99.90;;;;;;5020368;28;20205;-61
2023/09/14 08:40:32;;;;;;;2.97;1.53;;;16.30;99.90;;;;;;5034775;28;20206;-61
2023/09/14 08:43:00;;;;;;;1.50;1.27;;;16.20;99.90;;;;;;5038718;28;20268;-67
2023/09/14 08:45:30;;;;;;;4.63;1.47;;;16.30;99.90;;;;;;5023460;28;20241;-65
2023/09/14 08:47:57;;;;;;;1.73;1.60;;;16.50;99.90;;;;;;5009892;28;20231;-64
2023/09/14 08:50:25;;;;;;;2.63;2.17;;;16.50;99.90;;;;;;5017678;28;20302;-62
2023/09/14 08:52:51;;;;;;;1.70;1.40;;;16.60;99.90;;;;;;5013016;28;20371;-62
2023/09/14 08:55:19;;;;;;;2.47;0.93;;;16.50;99.90;;;;;;5017251;28;20195;-65
2023/09/14 08:57:45;;;;;;;2.43;1.57;;;16.60;99.90;;;;;;5012268;28;20201;-61
2023/09/14 09:00:16;;;;;;;3.17;1.90;;;16.70;99.90;;;;;;5019631;28;20211;-65
2023/09/14 09:02:47;;;;;;;3.40;1.70;;;16.90;99.90;;;;;;5011043;28;20199;-62
2023/09/14 09:05:14;;;;;;;2.03;1.20;;;16.90;99.90;;;;;;5015634;28;20294;-63
2023/09/14 09:07:41;;;;;;;2.20;1.20;;;16.90;99.90;;;;;;5014428;28;20255;-66
2023/09/14 09:10:19;;;;;;;2.33;1.70;;;16.90;99.90;;;;;;5018736;28;20253;-62
2023/09/14 09:12:46;;;;;;;3.20;1.43;;;16.90;99.90;;;;;;5014479;28;20353;-62
2023/09/14 09:15:13;;;;;;;2.67;1.80;;;16.90;99.90;;;;;;5014782;28;20188;-63
2023/09/14 09:17:40;;;;;;;3.17;1.53;;;16.90;99.90;;;;;;5017115;28;20196;-61
2023/09/14 09:20:19;;;;;;;1.30;1.20;;;16.90;99.90;;;;;;5020176;28;20242;-63
2023/09/14 09:22:45;;;;;;;4.43;1.77;;;17.20;99.90;;;;;;5017654;28;20263;-61
2023/09/14 09:25:12;;;;;;;1.97;1.83;;;17.20;99.90;;;;;;5018629;28;20194;-62
2023/09/14 09:27:40;;;;;;;1.67;1.33;;;17.20;99.90;;;;;;5013783;28;20706;-64
2023/09/14 09:30:08;;;;;;;5.23;1.47;;;17.30;99.90;;;;;;5021951;28;20202;-63
2023/09/14 09:32:35;;;;;;;4.57;1.67;;;17.40;99.90;;;;;;5014487;28;20195;-64
2023/09/14 09:35:19;;;;;;;3.80;1.40;;;17.30;99.90;;;;;;5017681;28;20204;-62
2023/09/14 09:37:45;;;;;;;3.47;1.70;;;17.20;99.90;;;;;;5017637;28;20200;-65
2023/09/14 09:40:22;;;;;;;1.40;1.30;;;17.30;99.90;;;;;;5017952;28;20624;-59
2023/09/14 09:42:48;;;;;;;3.33;1.67;;;17.40;99.90;;;;;;5013404;28;20201;-60
2023/09/14 09:45:15;;;;;;;2.67;1.37;;;17.50;99.90;;;;;;5015491;28;20274;-59
2023/09/14 09:47:41;;;;;;;6.13;2.00;;;17.60;99.90;;;;;;5024740;28;20230;-60
2023/09/14 09:50:12;;;;;;;2.40;1.30;;;17.50;99.90;;;;;;5019507;28;20214;-61
2023/09/14 09:52:39;;;;;;;2.77;1.37;;;17.40;99.90;;;;;;5020304;28;20202;-61
2023/09/14 09:55:07;;;;;;;2.17;1.50;;;17.60;99.90;;;;;;5038561;28;20213;-60
2023/09/14 09:57:36;;;;;;;1.40;1.20;;;17.70;99.90;;;;;;5020951;28;21025;-60
2023/09/14 10:00:12;;;;;;;2.03;1.33;;;17.90;99.90;;;;;;5036853;28;20191;-60
2023/09/14 10:02:38;;;;;;;2.67;2.20;;;18.00;99.90;;;;;;5033996;28;20232;-60
2023/09/14 10:05:04;;;;;;;9.50;1.33;;;17.90;99.90;;;;;;5041699;28;20270;-62
2023/09/14 10:07:35;;;;;;;2.70;1.17;;;17.90;99.90;;;;;;5036429;28;20355;-62
2023/09/14 10:10:00;;;;;;;3.23;2.20;;;17.90;99.90;;;;;;5036636;28;20205;-61
2023/09/14 10:12:30;;;;;;;2.23;1.10;;;18.00;99.90;;;;;;5036743;28;20732;-63
2023/09/14 10:14:59;;;;;;;3.87;1.90;;;18.00;99.90;;;;;;5040891;28;20203;-62
2023/09/14 10:17:28;;;;;;;1.70;1.60;;;18.00;99.90;;;;;;5030406;28;20202;-61
2023/09/14 10:19:54;;;;;;;1.50;1.40;;;18.00;99.90;;;;;;5032292;28;20195;-61
2023/09/14 10:22:22;;;;;;;2.27;1.30;;;18.00;99.90;;;;;;5033851;28;20205;-63
2023/09/14 10:24:49;;;;;;;1.37;1.27;;;18.10;99.90;;;;;;5036024;28;20251;-62
2023/09/14 10:27:15;;;;;;;3.20;1.43;;;18.30;99.90;;;;;;5029116;28;20246;-61
2023/09/14 10:29:43;;;;;;;3.47;1.63;;;18.30;99.90;;;;;;5040094;28;20213;-61
2023/09/14 10:32:11;;;;;;;2.20;1.60;;;18.50;99.90;;;;;;5035591;28;20211;-64
2023/09/14 10:34:39;;;;;;;3.10;1.20;;;18.60;99.90;;;;;;5037068;28;20240;-66
2023/09/14 10:37:06;;;;;;;1.90;1.67;;;18.60;99.90;;;;;;5034259;28;20194;-64
2023/09/14 10:39:33;;;;;;;2.03;1.50;;;18.60;99.90;;;;;;5018040;28;20187;-64
2023/09/14 10:41:59;;;;;;;2.43;1.40;;;18.80;99.90;;;;;;5020642;28;20205;-62
2023/09/14 10:44:26;;;;;;;4.80;1.70;;;18.90;99.90;;;;;;5012838;28;20180;-64
2023/09/14 10:46:55;;;;;;;1.83;1.40;;;18.60;99.90;;;;;;5035833;28;20765;-64
2023/09/14 10:49:41;;;;;;;4.23;1.30;;;18.40;99.90;;;;;;5017876;28;20222;-65
2023/09/14 10:52:07;;;;;;;3.23;1.80;;;18.30;99.90;;;;;;5036150;28;20203;-63
2023/09/14 10:54:33;;;;;;;4.13;1.70;;;18.40;99.90;;;;;;5037562;28;20199;-63
2023/09/14 10:57:00;;;;;;;2.40;1.33;;;18.70;99.90;;;;;;5036373;28;20437;-65
2023/09/14 10:59:45;;;;;;;2.20;1.50;;;18.80;99.90;;;;;;5035691;28;20201;-63
2023/09/14 11:02:11;;;;;;;3.20;1.83;;;19.10;99.90;;;;;;5017370;28;20211;-64
2023/09/14 11:05:12;;;;;;;5.27;1.77;;;19.40;99.90;;;;;;5034379;28;20209;-64
2023/09/14 11:07:39;;;;;;;1.20;1.20;;;19.60;99.90;;;;;;5018186;28;20273;-62
2023/09/14 11:10:09;;;;;;;3.13;1.93;;;20.00;99.90;;;;;;5037974;28;20221;-65
2023/09/14 11:12:35;;;;;;;2.23;1.30;;;20.20;99.90;;;;;;5037725;28;20262;-64
2023/09/14 11:15:21;;;;;;;4.20;1.30;;;20.00;99.90;;;;;;5036917;28;20201;-60
2023/09/14 11:17:54;;;;;;;4.97;1.40;;;19.70;99.90;;;;;;5032507;28;20763;-59
2023/09/14 11:20:20;;;;;;;2.33;1.70;;;19.30;99.90;;;;;;5033695;28;20421;-59
2023/09/14 11:22:49;;;;;;;4.63;1.73;;;19.20;99.90;;;;;;5035463;28;20600;-60
2023/09/14 11:25:33;;;;;;;2.90;1.70;;;19.20;99.90;;;;;;5016480;28;20234;-59
2023/09/14 11:27:59;;;;;;;2.63;1.93;;;19.00;99.90;;;;;;5036194;28;20204;-60
2023/09/14 11:30:26;;;;;;;2.10;1.43;;;18.70;99.90;;;;;;5028580;28;20189;-60
2023/09/14 11:32:53;;;;;;;2.07;1.40;;;18.60;99.90;;;;;;5014010;28;20954;-58
2023/09/14 11:35:19;;;;;;;1.20;1.10;;;18.90;99.90;;;;;;5035983;28;20199;-60
2023/09/14 11:37:46;;;;;;;3.37;1.93;;;19.50;99.90;;;;;;5030661;28;20198;-62
2023/09/14 11:40:17;;;;;;;3.83;1.80;;;19.80;99.90;;;;;;5034407;28;20206;-61
2023/09/14 11:43:20;;;;;;;5.73;1.73;;;20.10;99.90;;;;;;5035707;28;20975;-64
2023/09/14 11:45:47;;;;;;;2.07;1.87;;;20.30;99.90;;;;;;5031779;28;20204;-61
2023/09/14 11:48:14;;;;;;;3.90;1.50;;;20.20;99.90;;;;;;5018214;28;20229;-64
2023/09/14 11:50:44;;;;;;;2.80;1.57;;;20.20;99.60;;;;;;5031176;28;20198;-62
2023/09/14 11:53:13;;;;;;;2.13;1.80;;;20.50;99.90;;;;;;5037578;28;20198;-63
2023/09/14 11:55:39;;;;;;;3.90;1.57;;;20.40;97.90;;;;;;5019761;28;20190;-65
2023/09/14 11:58:05;;;;;;;1.87;1.30;;;20.50;97.90;;;;;;5035710;28;20283;-66
2023/09/14 12:00:41;;;;;;;1.50;1.20;;;20.20;97.50;;;;;;5014079;28;20681;-66
2023/09/14 12:03:07;;;;;;;2.13;1.30;;;20.80;98.30;;;;;;5022380;28;20222;-65
2023/09/14 12:05:32;;;;;;;1.57;1.47;;;20.70;97.20;;;;;;5037715;28;20202;-65
2023/09/14 12:07:58;;;;;;;1.60;1.50;;;20.40;98.70;;;;;;5014209;28;20487;-62
2023/09/14 12:10:23;;;;;;;1.40;1.30;;;20.20;99.30;;;;;;5041487;28;21132;-65
2023/09/14 12:12:49;;;;;;;2.93;1.53;;;19.90;99.90;;;;;;5020472;28;20244;-65
2023/09/14 12:15:21;;;;;;;2.73;1.50;;;20.10;99.60;;;;;;5040457;28;20208;-63
2023/09/14 12:17:51;;;;;;;2.23;1.30;;;20.10;97.50;;;;;;5038800;28;20846;-63
2023/09/14 12:20:17;;;;;;;2.40;1.50;;;20.10;98.90;;;;;;5040518;28;20190;-63
2023/09/14 12:22:43;;;;;;;1.87;1.77;;;20.10;97.20;;;;;;5036490;28;20209;-63
2023/09/14 12:25:11;;;;;;;1.90;1.70;;;20.30;98.10;;;;;;5038493;28;20190;-63
2023/09/14 12:27:36;;;;;;;2.10;1.40;;;20.50;98.40;;;;;;5038134;28;20257;-63
2023/09/14 12:30:07;;;;;;;4.10;1.97;;;20.80;98.10;;;;;;5016294;28;20226;-62
2023/09/14 12:32:34;;;;;;;5.40;2.20;;;21.30;96.10;;;;;;5038189;28;20194;-63
2023/09/14 12:35:00;;;;;;;12.07;2.97;;;21.80;95.80;;;;;;5036607;28;20679;-64
2023/09/14 12:37:26;;;;;;;4.93;1.73;;;22.10;96.10;;;;;;5031368;28;20778;-64
2023/09/14 12:39:52;;;;;;;2.83;2.30;;;22.20;96.50;;;;;;5037917;28;20207;-66
2023/09/14 12:42:23;;;;;;;2.43;1.80;;;22.50;95.70;;;;;;5035632;28;20202;-64
2023/09/14 12:44:50;;;;;;;2.30;1.42;;;22.40;94.90;;;;;;5011199;28;20198;-62